Flight Track Log - Related Links

Times and Time Zones

All times are in EDT time to prevent confusion due to time zone crossing. See the JUS205 flight status page for this flight to view local times or setup timezone preferences in your user account.


Time Position Orientation Groundspeed Altitude Reporting Facility
EDT Latitude Longitude Course Direction KTS MPH feet Rate Location/Type
Tue 09:02:06 PM 26.4092 -100.3019 30° Northeast 436 502 24,700  Level Houston Center
Tue 09:03:08 PM 26.5178 -100.2311 30° Northeast 446 513 25,000 146 Climbing Houston Center
Tue 09:04:09 PM 26.6222 -100.1556 33° Northeast 447 514 25,000  Level Houston Center
Tue 09:05:11 PM 26.7244 -100.0781 34° Northeast 447 514 25,000  Level Houston Center
Tue 09:06:12 PM 26.8311 -100.0056 31° Northeast 446 513 25,000 -439 Level Houston Center
Tue 09:07:14 PM 26.9319 -99.9281 34° Northeast 444 511 24,100 -1,561 Descending Houston Center
Tue 09:08:15 PM 27.0250 -99.8633 32° Northeast 415 478 21,800 -2,341 Descending Houston Center
Tue 09:09:17 PM 27.1153 -99.7939 34° Northeast 401 461 19,300 -2,468 Descending Houston Center
Tue 09:10:19 PM 27.2033 -99.7275 34° Northeast 391 450 16,700 -2,732 Descending Houston Center
Tue 09:11:20 PM 27.3089 -99.6575 31° Northeast 374 430 13,700 -2,508 Descending Houston Center
Tue 09:12:21 PM 27.3911 -99.5944 34° Northeast 366 421 11,600 -1,902 Descending Houston Center
Tue 09:13:23 PM 27.4758 -99.5675 16° North 341 392 9,800 -1,610 Descending Houston Center
Tue 09:14:24 PM 27.5586 -99.5881 348° North 319 367 8,300 -1,475 Descending Houston Center
Tue 09:16:00 PM 27.3864 -99.7052 211° Southwest  Level Estimated
Tue 09:23:00 PM 26.6317 -100.2135 213° Southwest  Level Estimated
Tue 09:24:00 PM 26.5181 -100.2738 205° Southwest  Level FlightAware Approximate
Tue 09:25:00 PM 26.4045 -100.3340 205° Southwest  Level FlightAware Approximate
Tue 09:26:00 PM 26.2909 -100.3941 205° Southwest  Level FlightAware Approximate
Tue 09:27:00 PM 26.1855 -100.4706 211° Southwest  Level Estimated
Tue 09:28:00 PM 26.0801 -100.5469 213° Southwest  Level Estimated
Tue 09:29:00 PM 25.9698 -100.6141 209° Southwest  Level FlightAware Approximate
Tue 09:30:00 PM 25.8656 -100.6923 214° Southwest  Level Estimated
Tue 09:31:00 PM 25.7614 -100.7704 214° Southwest  Level Estimated
Tue 09:32:00 PM 25.6571 -100.8484 208° Southwest  Level Estimated
Tue 09:33:00 PM 25.5528 -100.9262 208° Southwest  Level Estimated
Tue 09:34:00 PM 25.5495 -100.9287 208° Southwest  Level Estimated
Tue 09:35:00 PM 25.5495 -100.9287 208° Southwest  Level Estimated
Tue 09:36:00 PM 25.5495 -100.9287 208° Southwest  Level Estimated
Tue 09:37:00 PM 25.5495 -100.9287 208° Southwest  Level Estimated
Tue 09:38:00 PM 25.5495 -100.9287 208° Southwest  Level Estimated
Tue 09:39:00 PM 25.5495 -100.9287 208° Southwest  Level Estimated
Tue 09:40:00 PM 25.5495 -100.9287 208° Southwest  Level Estimated
Tue 09:41:00 PM 25.5495 -100.9287 208° Southwest  Level Estimated
Tue 09:42:00 PM 25.5495 -100.9287 208° Southwest  Level Estimated
Tue 09:43:00 PM 25.5495 -100.9287 208° Southwest  Level Estimated
Tue 09:44:00 PM 25.5495 -100.9287 208° Southwest  Level Estimated
Tue 09:45:00 PM 25.5495 -100.9287 208° Southwest  Level Estimated
Tue 09:46:00 PM 25.5495 -100.9287 208° Southwest  Level Estimated
Tue 09:47:00 PM 25.5495 -100.9287 208° Southwest  Level Estimated
Tue 09:48:00 PM 25.5495 -100.9287 208° Southwest  Level Estimated
Tue 09:49:00 PM 25.5495 -100.9287 208° Southwest  Level Estimated
Tue 09:50:00 PM 25.5495 -100.9287 208° Southwest  Level Estimated
Tue 09:51:00 PM 25.5495 -100.9287 208° Southwest  Level Estimated
Tue 09:52:00 PM 25.5495 -100.9287 208° Southwest  Level Estimated
Tue 09:53:00 PM 25.5495 -100.9287 208° Southwest  Level Estimated
Tue 09:54:00 PM 25.5495 -100.9287 208° Southwest  Level Estimated
Tue 09:55:00 PM 25.5495 -100.9287 208° Southwest  Level Estimated
Tue 09:56:00 PM 25.5495 -100.9287 208° Southwest  Level Estimated
Tue 09:57:00 PM 25.5495 -100.9287 208° Southwest  Level Estimated
Tue 09:58:00 PM 25.5495 -100.9287 208° Southwest  Level Estimated
Tue 09:59:00 PM 25.5495 -100.9287 208° Southwest  Level Estimated
Tue 10:00:00 PM 25.5495 -100.9287 208° Southwest  Level Estimated
Tue 10:01:00 PM 25.5495 -100.9287 208° Southwest  Level Estimated
Tue 10:02:00 PM 25.5495 -100.9287 208° Southwest  Level Estimated
Tue 10:03:00 PM 25.5495 -100.9287 208° Southwest  Level Estimated
Tue 10:04:00 PM 25.5495 -100.9287 208° Southwest  Level Estimated
Tue 10:05:00 PM 25.5495 -100.9287 208° Southwest  Level Estimated
Tue 10:06:00 PM 25.5495 -100.9287 208° Southwest  Level Estimated

Login

Don't have an account? Register now (free) for customized features, flight alerts, and more!